sensor_id;sensor_type;location;lat;lon;timestamp;temperature;humidity
584;HTU21D;27024;54.068;12.116;2023-04-25T00:01:30;8.95;105.37
584;HTU21D;27024;54.068;12.116;2023-04-25T00:03:58;8.91;105.69
584;HTU21D;27024;54.068;12.116;2023-04-25T00:06:26;8.95;105.56
584;HTU21D;27024;54.068;12.116;2023-04-25T00:08:53;8.98;105.21
584;HTU21D;27024;54.068;12.116;2023-04-25T00:11:20;9.01;105.92
584;HTU21D;27024;54.068;12.116;2023-04-25T00:13:47;8.91;107.83
584;HTU21D;27024;54.068;12.116;2023-04-25T00:16:16;8.86;109.00
584;HTU21D;27024;54.068;12.116;2023-04-25T00:18:44;8.82;110.05
584;HTU21D;27024;54.068;12.116;2023-04-25T00:21:12;8.78;110.86
584;HTU21D;27024;54.068;12.116;2023-04-25T00:23:39;8.73;111.54
584;HTU21D;27024;54.068;12.116;2023-04-25T00:26:06;8.66;112.77
584;HTU21D;27024;54.068;12.116;2023-04-25T00:28:33;8.73;112.93
584;HTU21D;27024;54.068;12.116;2023-04-25T00:31:00;8.78;112.93
584;HTU21D;27024;54.068;12.116;2023-04-25T00:33:27;8.64;113.86
584;HTU21D;27024;54.068;12.116;2023-04-25T00:35:54;8.60;114.53
584;HTU21D;27024;54.068;12.116;2023-04-25T00:38:21;8.55;115.12
584;HTU21D;27024;54.068;12.116;2023-04-25T00:40:47;8.59;114.81
584;HTU21D;27024;54.068;12.116;2023-04-25T00:43:14;8.50;114.93
584;HTU21D;27024;54.068;12.116;2023-04-25T00:45:42;8.50;114.94
584;HTU21D;27024;54.068;12.116;2023-04-25T00:48:10;8.45;115.28
584;HTU21D;27024;54.068;12.116;2023-04-25T00:50:37;8.51;115.25
584;HTU21D;27024;54.068;12.116;2023-04-25T00:53:04;8.57;114.76
584;HTU21D;27024;54.068;12.116;2023-04-25T00:55:31;8.52;114.85
584;HTU21D;27024;54.068;12.116;2023-04-25T00:57:58;8.51;114.33
584;HTU21D;27024;54.068;12.116;2023-04-25T01:00:25;8.53;114.16
584;HTU21D;27024;54.068;12.116;2023-04-25T01:02:52;8.55;113.49
584;HTU21D;27024;54.068;12.116;2023-04-25T01:05:19;8.51;114.08
584;HTU21D;27024;54.068;12.116;2023-04-25T01:07:46;8.52;113.74
584;HTU21D;27024;54.068;12.116;2023-04-25T01:10:13;8.43;115.07
584;HTU21D;27024;54.068;12.116;2023-04-25T01:12:41;8.48;115.04
584;HTU21D;27024;54.068;12.116;2023-04-25T01:15:09;8.42;114.99
584;HTU21D;27024;54.068;12.116;2023-04-25T01:17:36;8.38;114.25
584;HTU21D;27024;54.068;12.116;2023-04-25T01:20:04;8.35;113.87
584;HTU21D;27024;54.068;12.116;2023-04-25T01:22:32;8.43;113.49
584;HTU21D;27024;54.068;12.116;2023-04-25T01:24:59;8.35;113.80
584;HTU21D;27024;54.068;12.116;2023-04-25T01:27:27;8.38;113.97
584;HTU21D;27024;54.068;12.116;2023-04-25T01:29:54;8.39;112.88
584;HTU21D;27024;54.068;12.116;2023-04-25T01:32:23;8.37;112.61
584;HTU21D;27024;54.068;12.116;2023-04-25T01:34:50;8.38;113.04
584;HTU21D;27024;54.068;12.116;2023-04-25T01:37:17;8.36;112.70
584;HTU21D;27024;54.068;12.116;2023-04-25T01:39:44;8.28;111.33
584;HTU21D;27024;54.068;12.116;2023-04-25T01:42:13;8.31;111.98
584;HTU21D;27024;54.068;12.116;2023-04-25T01:44:39;8.26;112.82
584;HTU21D;27024;54.068;12.116;2023-04-25T01:47:06;8.33;112.69
584;HTU21D;27024;54.068;12.116;2023-04-25T01:49:33;8.34;112.75
584;HTU21D;27024;54.068;12.116;2023-04-25T01:52:00;8.33;113.61
584;HTU21D;27024;54.068;12.116;2023-04-25T01:54:27;8.37;114.27
584;HTU21D;27024;54.068;12.116;2023-04-25T01:56:57;8.37;114.64
584;HTU21D;27024;54.068;12.116;2023-04-25T01:59:24;8.43;114.98
584;HTU21D;27024;54.068;12.116;2023-04-25T02:01:51;8.37;115.49
584;HTU21D;27024;54.068;12.116;2023-04-25T02:04:18;8.41;114.28
584;HTU21D;27024;54.068;12.116;2023-04-25T02:06:45;8.36;114.45
584;HTU21D;27024;54.068;12.116;2023-04-25T02:09:12;8.39;114.08
584;HTU21D;27024;54.068;12.116;2023-04-25T02:11:39;8.39;114.26
584;HTU21D;27024;54.068;12.116;2023-04-25T02:14:06;8.39;113.67
584;HTU21D;27024;54.068;12.116;2023-04-25T02:16:32;8.37;112.70
584;HTU21D;27024;54.068;12.116;2023-04-25T02:18:59;8.42;112.61
584;HTU21D;27024;54.068;12.116;2023-04-25T02:21:26;8.37;112.44
584;HTU21D;27024;54.068;12.116;2023-04-25T02:23:53;8.39;112.06
584;HTU21D;27024;54.068;12.116;2023-04-25T02:26:20;8.44;110.33
584;HTU21D;27024;54.068;12.116;2023-04-25T02:28:47;8.46;111.03
584;HTU21D;27024;54.068;12.116;2023-04-25T02:31:14;8.48;111.26
584;HTU21D;27024;54.068;12.116;2023-04-25T02:33:41;8.47;111.13
584;HTU21D;27024;54.068;12.116;2023-04-25T02:36:08;8.42;108.62
584;HTU21D;27024;54.068;12.116;2023-04-25T02:38:35;8.44;108.91
584;HTU21D;27024;54.068;12.116;2023-04-25T02:41:02;8.46;107.21
584;HTU21D;27024;54.068;12.116;2023-04-25T02:43:29;8.36;107.64
584;HTU21D;27024;54.068;12.116;2023-04-25T02:45:56;8.42;107.34
584;HTU21D;27024;54.068;12.116;2023-04-25T02:48:23;8.33;107.11
584;HTU21D;27024;54.068;12.116;2023-04-25T02:50:49;8.29;105.51
584;HTU21D;27024;54.068;12.116;2023-04-25T02:53:17;8.20;103.61
584;HTU21D;27024;54.068;12.116;2023-04-25T02:55:44;8.18;102.43
584;HTU21D;27024;54.068;12.116;2023-04-25T02:58:11;8.21;101.83
584;HTU21D;27024;54.068;12.116;2023-04-25T03:00:38;8.18;102.06
584;HTU21D;27024;54.068;12.116;2023-04-25T03:03:05;8.09;102.71
584;HTU21D;27024;54.068;12.116;2023-04-25T03:05:31;8.08;101.13
584;HTU21D;27024;54.068;12.116;2023-04-25T03:07:58;8.02;101.99
584;HTU21D;27024;54.068;12.116;2023-04-25T03:10:25;8.06;102.53
584;HTU21D;27024;54.068;12.116;2023-04-25T03:12:52;8.00;101.79
584;HTU21D;27024;54.068;12.116;2023-04-25T03:15:19;8.03;101.04
584;HTU21D;27024;54.068;12.116;2023-04-25T03:17:46;8.05;102.05
584;HTU21D;27024;54.068;12.116;2023-04-25T03:20:13;8.11;100.91
584;HTU21D;27024;54.068;12.116;2023-04-25T03:22:40;8.02;101.91
584;HTU21D;27024;54.068;12.116;2023-04-25T03:25:07;7.99;102.34
584;HTU21D;27024;54.068;12.116;2023-04-25T03:27:34;8.07;101.83
584;HTU21D;27024;54.068;12.116;2023-04-25T03:30:01;7.91;102.63
584;HTU21D;27024;54.068;12.116;2023-04-25T03:32:27;7.81;101.41
584;HTU21D;27024;54.068;12.116;2023-04-25T03:34:54;7.84;102.58
584;HTU21D;27024;54.068;12.116;2023-04-25T03:37:21;7.84;102.79
584;HTU21D;27024;54.068;12.116;2023-04-25T03:39:48;7.85;101.03
584;HTU21D;27024;54.068;12.116;2023-04-25T03:42:15;7.97;99.63
584;HTU21D;27024;54.068;12.116;2023-04-25T03:44:42;7.93;100.43
584;HTU21D;27024;54.068;12.116;2023-04-25T03:47:09;7.81;99.78
584;HTU21D;27024;54.068;12.116;2023-04-25T03:49:35;7.91;99.07
584;HTU21D;27024;54.068;12.116;2023-04-25T03:52:03;7.79;98.15
584;HTU21D;27024;54.068;12.116;2023-04-25T03:54:30;7.82;98.41
584;HTU21D;27024;54.068;12.116;2023-04-25T03:56:57;7.78;98.14
584;HTU21D;27024;54.068;12.116;2023-04-25T03:59:24;7.64;98.06
584;HTU21D;27024;54.068;12.116;2023-04-25T04:01:52;7.70;96.87
584;HTU21D;27024;54.068;12.116;2023-04-25T04:04:19;7.77;96.81
584;HTU21D;27024;54.068;12.116;2023-04-25T04:06:46;7.74;96.78
584;HTU21D;27024;54.068;12.116;2023-04-25T04:09:13;7.73;96.38
584;HTU21D;27024;54.068;12.116;2023-04-25T04:11:40;7.70;96.74
584;HTU21D;27024;54.068;12.116;2023-04-25T04:14:07;7.70;97.06
584;HTU21D;27024;54.068;12.116;2023-04-25T04:16:34;7.64;96.60
584;HTU21D;27024;54.068;12.116;2023-04-25T04:19:01;7.59;95.98
584;HTU21D;27024;54.068;12.116;2023-04-25T04:21:28;7.61;96.51
584;HTU21D;27024;54.068;12.116;2023-04-25T04:23:55;7.70;97.26
584;HTU21D;27024;54.068;12.116;2023-04-25T04:26:24;7.71;96.29
584;HTU21D;27024;54.068;12.116;2023-04-25T04:28:53;7.65;96.40
584;HTU21D;27024;54.068;12.116;2023-04-25T04:31:21;7.63;95.42
584;HTU21D;27024;54.068;12.116;2023-04-25T04:33:48;7.68;95.94
584;HTU21D;27024;54.068;12.116;2023-04-25T04:36:15;7.64;95.93
584;HTU21D;27024;54.068;12.116;2023-04-25T04:38:42;7.64;95.33
584;HTU21D;27024;54.068;12.116;2023-04-25T04:41:09;7.62;94.91
584;HTU21D;27024;54.068;12.116;2023-04-25T04:43:36;7.56;95.04
584;HTU21D;27024;54.068;12.116;2023-04-25T04:46:03;7.49;93.28
584;HTU21D;27024;54.068;12.116;2023-04-25T04:48:33;7.58;94.81
584;HTU21D;27024;54.068;12.116;2023-04-25T04:51:01;7.35;96.55
584;HTU21D;27024;54.068;12.116;2023-04-25T04:53:27;7.56;94.91
584;HTU21D;27024;54.068;12.116;2023-04-25T04:55:54;7.79;94.53
584;HTU21D;27024;54.068;12.116;2023-04-25T04:58:21;7.52;94.10
584;HTU21D;27024;54.068;12.116;2023-04-25T05:00:48;7.61;95.04
584;HTU21D;27024;54.068;12.116;2023-04-25T05:03:15;7.61;93.98
584;HTU21D;27024;54.068;12.116;2023-04-25T05:05:42;7.53;94.17
584;HTU21D;27024;54.068;12.116;2023-04-25T05:08:09;7.41;92.98
584;HTU21D;27024;54.068;12.116;2023-04-25T05:10:36;7.29;93.12
584;HTU21D;27024;54.068;12.116;2023-04-25T05:13:03;7.52;92.26
584;HTU21D;27024;54.068;12.116;2023-04-25T05:15:29;7.64;91.95
584;HTU21D;27024;54.068;12.116;2023-04-25T05:17:56;7.86;90.03
584;HTU21D;27024;54.068;12.116;2023-04-25T05:20:23;7.84;88.87
584;HTU21D;27024;54.068;12.116;2023-04-25T05:22:50;7.81;87.40
584;HTU21D;27024;54.068;12.116;2023-04-25T05:25:17;8.04;87.44
584;HTU21D;27024;54.068;12.116;2023-04-25T05:27:44;7.93;87.02
584;HTU21D;27024;54.068;12.116;2023-04-25T05:30:11;7.98;87.37
584;HTU21D;27024;54.068;12.116;2023-04-25T05:32:37;8.19;86.48
584;HTU21D;27024;54.068;12.116;2023-04-25T05:35:04;8.23;87.25
584;HTU21D;27024;54.068;12.116;2023-04-25T05:37:33;8.20;87.15
584;HTU21D;27024;54.068;12.116;2023-04-25T05:40:00;7.92;87.53
584;HTU21D;27024;54.068;12.116;2023-04-25T05:42:26;7.72;86.48
584;HTU21D;27024;54.068;12.116;2023-04-25T05:44:53;7.81;87.38
584;HTU21D;27024;54.068;12.116;2023-04-25T05:47:20;7.81;88.96
584;HTU21D;27024;54.068;12.116;2023-04-25T05:49:47;8.09;84.61
584;HTU21D;27024;54.068;12.116;2023-04-25T05:52:14;8.07;87.16
584;HTU21D;27024;54.068;12.116;2023-04-25T05:54:41;8.34;87.12
584;HTU21D;27024;54.068;12.116;2023-04-25T05:57:08;8.09;88.68
584;HTU21D;27024;54.068;12.116;2023-04-25T05:59:35;8.21;88.78
584;HTU21D;27024;54.068;12.116;2023-04-25T06:02:02;8.07;89.18
584;HTU21D;27024;54.068;12.116;2023-04-25T06:04:29;7.96;85.52
584;HTU21D;27024;54.068;12.116;2023-04-25T06:06:56;8.06;84.52
584;HTU21D;27024;54.068;12.116;2023-04-25T06:09:23;8.32;82.07
584;HTU21D;27024;54.068;12.116;2023-04-25T06:11:50;8.57;82.25
584;HTU21D;27024;54.068;12.116;2023-04-25T06:14:17;8.13;79.51
584;HTU21D;27024;54.068;12.116;2023-04-25T06:16:44;8.85;76.83
584;HTU21D;27024;54.068;12.116;2023-04-25T06:19:10;8.71;74.14
584;HTU21D;27024;54.068;12.116;2023-04-25T06:21:37;9.49;70.05
584;HTU21D;27024;54.068;12.116;2023-04-25T06:24:04;10.27;64.08
584;HTU21D;27024;54.068;12.116;2023-04-25T06:26:31;10.03;65.14
584;HTU21D;27024;54.068;12.116;2023-04-25T06:28:58;10.30;61.76
584;HTU21D;27024;54.068;12.116;2023-04-25T06:31:25;10.84;61.02
584;HTU21D;27024;54.068;12.116;2023-04-25T06:33:51;9.50;65.18
584;HTU21D;27024;54.068;12.116;2023-04-25T06:36:21;9.06;70.02
584;HTU21D;27024;54.068;12.116;2023-04-25T06:38:52;9.10;69.49
584;HTU21D;27024;54.068;12.116;2023-04-25T06:41:19;8.92;72.20
584;HTU21D;27024;54.068;12.116;2023-04-25T06:43:46;8.93;73.67
584;HTU21D;27024;54.068;12.116;2023-04-25T06:46:13;9.31;73.12
584;HTU21D;27024;54.068;12.116;2023-04-25T06:48:40;9.23;72.13
584;HTU21D;27024;54.068;12.116;2023-04-25T06:51:06;9.19;69.58
584;HTU21D;27024;54.068;12.116;2023-04-25T06:53:33;8.75;72.95
584;HTU21D;27024;54.068;12.116;2023-04-25T06:56:00;8.72;71.58
584;HTU21D;27024;54.068;12.116;2023-04-25T06:58:27;8.68;72.02
584;HTU21D;27024;54.068;12.116;2023-04-25T07:00:54;8.66;72.87
584;HTU21D;27024;54.068;12.116;2023-04-25T07:03:21;8.75;69.46
584;HTU21D;27024;54.068;12.116;2023-04-25T07:05:48;8.87;70.21
584;HTU21D;27024;54.068;12.116;2023-04-25T07:08:15;8.85;70.97
584;HTU21D;27024;54.068;12.116;2023-04-25T07:10:42;8.95;69.78
584;HTU21D;27024;54.068;12.116;2023-04-25T07:13:09;8.94;69.55
584;HTU21D;27024;54.068;12.116;2023-04-25T07:15:36;9.12;71.22
584;HTU21D;27024;54.068;12.116;2023-04-25T07:18:03;9.06;63.65
584;HTU21D;27024;54.068;12.116;2023-04-25T07:20:30;8.89;64.79
584;HTU21D;27024;54.068;12.116;2023-04-25T07:22:57;8.98;64.16
584;HTU21D;27024;54.068;12.116;2023-04-25T07:25:24;8.80;61.70
584;HTU21D;27024;54.068;12.116;2023-04-25T07:27:51;8.87;61.33
584;HTU21D;27024;54.068;12.116;2023-04-25T07:30:18;8.96;62.21
584;HTU21D;27024;54.068;12.116;2023-04-25T07:32:45;9.01;61.76
584;HTU21D;27024;54.068;12.116;2023-04-25T07:35:12;9.17;62.69
584;HTU21D;27024;54.068;12.116;2023-04-25T07:37:38;8.95;60.12
584;HTU21D;27024;54.068;12.116;2023-04-25T07:40:06;9.20;60.77
584;HTU21D;27024;54.068;12.116;2023-04-25T07:42:34;9.23;60.44
584;HTU21D;27024;54.068;12.116;2023-04-25T07:45:01;9.18;60.86
584;HTU21D;27024;54.068;12.116;2023-04-25T07:47:28;9.03;60.52
584;HTU21D;27024;54.068;12.116;2023-04-25T07:49:55;8.92;59.88
584;HTU21D;27024;54.068;12.116;2023-04-25T07:52:22;9.24;59.73
584;HTU21D;27024;54.068;12.116;2023-04-25T07:54:49;9.38;59.38
584;HTU21D;27024;54.068;12.116;2023-04-25T07:57:16;9.27;56.74
584;HTU21D;27024;54.068;12.116;2023-04-25T07:59:43;9.55;57.03
584;HTU21D;27024;54.068;12.116;2023-04-25T08:02:10;9.46;55.00
584;HTU21D;27024;54.068;12.116;2023-04-25T08:04:37;9.59;57.07
584;HTU21D;27024;54.068;12.116;2023-04-25T08:07:04;9.66;54.20
584;HTU21D;27024;54.068;12.116;2023-04-25T08:09:31;9.34;57.55
584;HTU21D;27024;54.068;12.116;2023-04-25T08:12:01;9.42;55.26
584;HTU21D;27024;54.068;12.116;2023-04-25T08:14:29;9.39;55.22
584;HTU21D;27024;54.068;12.116;2023-04-25T08:17:03;9.31;57.98
584;HTU21D;27024;54.068;12.116;2023-04-25T08:19:30;9.44;56.58
584;HTU21D;27024;54.068;12.116;2023-04-25T08:21:57;9.40;55.87
584;HTU21D;27024;54.068;12.116;2023-04-25T08:24:24;9.65;54.16
584;HTU21D;27024;54.068;12.116;2023-04-25T08:26:51;9.24;54.25
584;HTU21D;27024;54.068;12.116;2023-04-25T08:29:18;9.33;52.48
584;HTU21D;27024;54.068;12.116;2023-04-25T08:31:45;9.34;51.56
584;HTU21D;27024;54.068;12.116;2023-04-25T08:34:12;9.67;53.56
584;HTU21D;27024;54.068;12.116;2023-04-25T08:36:39;9.83;47.60
584;HTU21D;27024;54.068;12.116;2023-04-25T08:39:06;10.08;46.44
584;HTU21D;27024;54.068;12.116;2023-04-25T08:41:33;10.31;46.10
584;HTU21D;27024;54.068;12.116;2023-04-25T08:44:00;10.37;44.54
584;HTU21D;27024;54.068;12.116;2023-04-25T08:46:30;10.42;45.37
584;HTU21D;27024;54.068;12.116;2023-04-25T08:49:01;10.42;46.37
584;HTU21D;27024;54.068;12.116;2023-04-25T08:51:32;10.45;45.72
584;HTU21D;27024;54.068;12.116;2023-04-25T08:54:10;10.31;51.29
584;HTU21D;27024;54.068;12.116;2023-04-25T08:56:57;10.20;49.27
584;HTU21D;27024;54.068;12.116;2023-04-25T08:59:28;10.46;49.11
584;HTU21D;27024;54.068;12.116;2023-04-25T09:01:55;10.45;51.08
584;HTU21D;27024;54.068;12.116;2023-04-25T09:04:23;10.13;51.18
584;HTU21D;27024;54.068;12.116;2023-04-25T09:06:50;10.04;49.44
584;HTU21D;27024;54.068;12.116;2023-04-25T09:09:17;9.92;51.61
584;HTU21D;27024;54.068;12.116;2023-04-25T09:11:44;9.81;53.56
584;HTU21D;27024;54.068;12.116;2023-04-25T09:14:22;9.70;55.48
584;HTU21D;27024;54.068;12.116;2023-04-25T09:19:23;10.04;56.93
584;HTU21D;27024;54.068;12.116;2023-04-25T09:22:05;9.82;53.49
584;HTU21D;27024;54.068;12.116;2023-04-25T09:27:12;9.52;56.57
584;HTU21D;27024;54.068;12.116;2023-04-25T09:29:40;9.40;57.94
584;HTU21D;27024;54.068;12.116;2023-04-25T09:32:21;9.32;56.26
584;HTU21D;27024;54.068;12.116;2023-04-25T09:34:56;9.29;58.31
584;HTU21D;27024;54.068;12.116;2023-04-25T09:37:25;9.33;58.35
584;HTU21D;27024;54.068;12.116;2023-04-25T09:39:55;9.07;59.83
584;HTU21D;27024;54.068;12.116;2023-04-25T09:42:23;8.83;62.34
584;HTU21D;27024;54.068;12.116;2023-04-25T09:44:54;8.73;64.85
584;HTU21D;27024;54.068;12.116;2023-04-25T09:47:25;8.93;66.01
584;HTU21D;27024;54.068;12.116;2023-04-25T09:49:53;8.92;66.11
584;HTU21D;27024;54.068;12.116;2023-04-25T09:52:21;8.90;63.79
584;HTU21D;27024;54.068;12.116;2023-04-25T09:54:52;8.76;66.59
584;HTU21D;27024;54.068;12.116;2023-04-25T09:57:21;8.66;67.24
584;HTU21D;27024;54.068;12.116;2023-04-25T09:59:55;8.92;69.04
584;HTU21D;27024;54.068;12.116;2023-04-25T10:02:26;9.02;69.94
584;HTU21D;27024;54.068;12.116;2023-04-25T10:04:54;8.86;63.90
584;HTU21D;27024;54.068;12.116;2023-04-25T10:07:24;8.97;64.59
584;HTU21D;27024;54.068;12.116;2023-04-25T10:09:58;9.02;60.70
584;HTU21D;27024;54.068;12.116;2023-04-25T10:12:26;9.07;61.73
584;HTU21D;27024;54.068;12.116;2023-04-25T10:14:54;9.32;60.35
584;HTU21D;27024;54.068;12.116;2023-04-25T10:17:21;9.79;58.90
584;HTU21D;27024;54.068;12.116;2023-04-25T10:19:48;9.68;57.22
584;HTU21D;27024;54.068;12.116;2023-04-25T10:22:26;10.11;55.64
584;HTU21D;27024;54.068;12.116;2023-04-25T10:24:55;11.02;54.04
584;HTU21D;27024;54.068;12.116;2023-04-25T10:27:23;11.70;49.74
584;HTU21D;27024;54.068;12.116;2023-04-25T10:30:03;11.75;47.77
584;HTU21D;27024;54.068;12.116;2023-04-25T10:32:31;11.11;46.19
584;HTU21D;27024;54.068;12.116;2023-04-25T10:35:19;10.84;46.35
584;HTU21D;27024;54.068;12.116;2023-04-25T10:38:09;10.36;47.31
584;HTU21D;27024;54.068;12.116;2023-04-25T10:40:37;10.05;49.52
584;HTU21D;27024;54.068;12.116;2023-04-25T10:46:23;10.13;53.08
584;HTU21D;27024;54.068;12.116;2023-04-25T10:48:55;9.72;51.34
584;HTU21D;27024;54.068;12.116;2023-04-25T10:56:24;9.84;52.81
584;HTU21D;27024;54.068;12.116;2023-04-25T10:58:52;9.75;53.84
584;HTU21D;27024;54.068;12.116;2023-04-25T11:04:22;9.93;55.65
584;HTU21D;27024;54.068;12.116;2023-04-25T11:09:40;10.08;55.62
584;HTU21D;27024;54.068;12.116;2023-04-25T11:12:08;10.12;55.87
584;HTU21D;27024;54.068;12.116;2023-04-25T11:14:36;10.06;55.13
584;HTU21D;27024;54.068;12.116;2023-04-25T11:17:03;10.23;55.38
584;HTU21D;27024;54.068;12.116;2023-04-25T11:19:30;10.41;53.96
584;HTU21D;27024;54.068;12.116;2023-04-25T11:21:58;10.53;55.05
584;HTU21D;27024;54.068;12.116;2023-04-25T11:24:32;10.63;53.75
584;HTU21D;27024;54.068;12.116;2023-04-25T11:27:02;10.99;52.72
584;HTU21D;27024;54.068;12.116;2023-04-25T11:29:30;10.80;49.80
584;HTU21D;27024;54.068;12.116;2023-04-25T11:31:57;10.62;49.80
584;HTU21D;27024;54.068;12.116;2023-04-25T11:34:25;10.75;52.44
584;HTU21D;27024;54.068;12.116;2023-04-25T11:36:53;10.66;53.25
584;HTU21D;27024;54.068;12.116;2023-04-25T11:39:20;11.30;50.65
584;HTU21D;27024;54.068;12.116;2023-04-25T11:41:47;10.89;51.87
584;HTU21D;27024;54.068;12.116;2023-04-25T11:44:17;10.98;51.91
584;HTU21D;27024;54.068;12.116;2023-04-25T11:46:45;10.68;52.22
584;HTU21D;27024;54.068;12.116;2023-04-25T11:49:13;10.31;52.94
584;HTU21D;27024;54.068;12.116;2023-04-25T11:51:40;10.49;52.81
584;HTU21D;27024;54.068;12.116;2023-04-25T11:54:07;10.38;53.34
584;HTU21D;27024;54.068;12.116;2023-04-25T11:56:34;10.88;53.88
584;HTU21D;27024;54.068;12.116;2023-04-25T11:59:05;10.54;49.92
584;HTU21D;27024;54.068;12.116;2023-04-25T12:01:38;10.38;51.27
584;HTU21D;27024;54.068;12.116;2023-04-25T12:04:15;10.26;53.05
584;HTU21D;27024;54.068;12.116;2023-04-25T12:06:43;10.41;55.00
584;HTU21D;27024;54.068;12.116;2023-04-25T12:09:11;10.54;54.25
584;HTU21D;27024;54.068;12.116;2023-04-25T12:11:56;10.78;53.94
584;HTU21D;27024;54.068;12.116;2023-04-25T12:14:28;10.92;54.70
584;HTU21D;27024;54.068;12.116;2023-04-25T12:17:00;10.90;55.45
584;HTU21D;27024;54.068;12.116;2023-04-25T12:19:35;10.72;57.08
584;HTU21D;27024;54.068;12.116;2023-04-25T12:22:03;10.50;56.21
584;HTU21D;27024;54.068;12.116;2023-04-25T12:24:33;10.37;56.99
584;HTU21D;27024;54.068;12.116;2023-04-25T12:27:06;10.24;57.60
584;HTU21D;27024;54.068;12.116;2023-04-25T12:29:35;10.10;60.22
584;HTU21D;27024;54.068;12.116;2023-04-25T12:32:15;9.62;61.28
584;HTU21D;27024;54.068;12.116;2023-04-25T12:34:42;9.68;61.92
584;HTU21D;27024;54.068;12.116;2023-04-25T12:37:09;9.66;61.27
584;HTU21D;27024;54.068;12.116;2023-04-25T12:39:36;9.47;62.87
584;HTU21D;27024;54.068;12.116;2023-04-25T12:42:03;9.37;62.69
584;HTU21D;27024;54.068;12.116;2023-04-25T12:44:34;9.25;60.51
584;HTU21D;27024;54.068;12.116;2023-04-25T12:47:01;9.41;61.26
584;HTU21D;27024;54.068;12.116;2023-04-25T12:49:30;9.34;61.56
584;HTU21D;27024;54.068;12.116;2023-04-25T12:51:57;9.50;61.47
584;HTU21D;27024;54.068;12.116;2023-04-25T12:54:24;9.95;59.73
584;HTU21D;27024;54.068;12.116;2023-04-25T12:56:52;10.74;57.00
584;HTU21D;27024;54.068;12.116;2023-04-25T12:59:19;11.97;54.14
584;HTU21D;27024;54.068;12.116;2023-04-25T13:01:47;12.18;53.27
584;HTU21D;27024;54.068;12.116;2023-04-25T13:04:14;12.14;52.86
584;HTU21D;27024;54.068;12.116;2023-04-25T13:06:42;12.48;51.99
584;HTU21D;27024;54.068;12.116;2023-04-25T13:09:08;12.25;49.02
584;HTU21D;27024;54.068;12.116;2023-04-25T13:11:36;11.67;48.88
584;HTU21D;27024;54.068;12.116;2023-04-25T13:14:03;12.59;47.34
584;HTU21D;27024;54.068;12.116;2023-04-25T13:16:29;13.03;49.24
584;HTU21D;27024;54.068;12.116;2023-04-25T13:18:57;13.40;45.57
584;HTU21D;27024;54.068;12.116;2023-04-25T13:21:24;13.63;43.68
584;HTU21D;27024;54.068;12.116;2023-04-25T13:23:52;13.01;44.33
584;HTU21D;27024;54.068;12.116;2023-04-25T13:26:19;12.94;45.36
584;HTU21D;27024;54.068;12.116;2023-04-25T13:28:46;12.34;48.10
584;HTU21D;27024;54.068;12.116;2023-04-25T13:31:13;12.31;48.24
584;HTU21D;27024;54.068;12.116;2023-04-25T13:33:40;11.75;50.47
584;HTU21D;27024;54.068;12.116;2023-04-25T13:36:07;11.83;50.78
584;HTU21D;27024;54.068;12.116;2023-04-25T13:38:34;11.59;50.18
584;HTU21D;27024;54.068;12.116;2023-04-25T13:41:00;11.29;51.55
584;HTU21D;27024;54.068;12.116;2023-04-25T13:43:27;10.89;52.88
584;HTU21D;27024;54.068;12.116;2023-04-25T13:45:54;10.52;55.79
584;HTU21D;27024;54.068;12.116;2023-04-25T13:48:24;10.46;57.20
584;HTU21D;27024;54.068;12.116;2023-04-25T13:50:51;10.48;58.77
584;HTU21D;27024;54.068;12.116;2023-04-25T13:53:17;10.16;63.67
584;HTU21D;27024;54.068;12.116;2023-04-25T13:55:44;10.04;70.93
584;HTU21D;27024;54.068;12.116;2023-04-25T13:58:11;9.78;74.89
584;HTU21D;27024;54.068;12.116;2023-04-25T14:00:38;9.62;78.27
584;HTU21D;27024;54.068;12.116;2023-04-25T14:03:06;9.32;79.30
584;HTU21D;27024;54.068;12.116;2023-04-25T14:05:36;9.61;78.21
584;HTU21D;27024;54.068;12.116;2023-04-25T14:08:09;9.53;78.53
584;HTU21D;27024;54.068;12.116;2023-04-25T14:10:37;9.22;79.17
584;HTU21D;27024;54.068;12.116;2023-04-25T14:13:04;9.11;79.62
584;HTU21D;27024;54.068;12.116;2023-04-25T14:15:33;9.06;82.22
584;HTU21D;27024;54.068;12.116;2023-04-25T14:18:01;9.16;81.35
584;HTU21D;27024;54.068;12.116;2023-04-25T14:20:28;9.18;75.25
584;HTU21D;27024;54.068;12.116;2023-04-25T14:22:55;9.23;77.29
584;HTU21D;27024;54.068;12.116;2023-04-25T14:25:24;9.02;72.10
584;HTU21D;27024;54.068;12.116;2023-04-25T14:27:51;9.51;70.61
584;HTU21D;27024;54.068;12.116;2023-04-25T14:30:19;9.94;67.66
584;HTU21D;27024;54.068;12.116;2023-04-25T14:32:47;10.05;65.96
584;HTU21D;27024;54.068;12.116;2023-04-25T14:35:15;10.18;65.60
584;HTU21D;27024;54.068;12.116;2023-04-25T14:37:42;10.20;59.65
584;HTU21D;27024;54.068;12.116;2023-04-25T14:40:09;10.39;58.22
584;HTU21D;27024;54.068;12.116;2023-04-25T14:42:37;10.41;56.32
584;HTU21D;27024;54.068;12.116;2023-04-25T14:45:05;10.66;55.20
584;HTU21D;27024;54.068;12.116;2023-04-25T14:47:37;10.79;54.41
584;HTU21D;27024;54.068;12.116;2023-04-25T14:50:05;10.72;55.91
584;HTU21D;27024;54.068;12.116;2023-04-25T14:52:32;10.60;53.95
584;HTU21D;27024;54.068;12.116;2023-04-25T14:54:59;10.93;52.43
584;HTU21D;27024;54.068;12.116;2023-04-25T14:57:32;10.71;51.62
584;HTU21D;27024;54.068;12.116;2023-04-25T15:00:00;10.63;51.08
584;HTU21D;27024;54.068;12.116;2023-04-25T15:02:28;10.80;52.62
584;HTU21D;27024;54.068;12.116;2023-04-25T15:04:54;10.58;52.37
584;HTU21D;27024;54.068;12.116;2023-04-25T15:07:24;10.41;55.46
584;HTU21D;27024;54.068;12.116;2023-04-25T15:09:52;10.62;57.46
584;HTU21D;27024;54.068;12.116;2023-04-25T15:12:19;10.71;55.65
584;HTU21D;27024;54.068;12.116;2023-04-25T15:14:46;10.84;54.69
584;HTU21D;27024;54.068;12.116;2023-04-25T15:17:13;10.73;55.23
584;HTU21D;27024;54.068;12.116;2023-04-25T15:19:41;11.13;53.49
584;HTU21D;27024;54.068;12.116;2023-04-25T15:22:08;11.60;50.76
584;HTU21D;27024;54.068;12.116;2023-04-25T15:24:35;11.96;52.36
584;HTU21D;27024;54.068;12.116;2023-04-25T15:27:02;11.52;51.58
584;HTU21D;27024;54.068;12.116;2023-04-25T15:29:31;11.48;50.63
584;HTU21D;27024;54.068;12.116;2023-04-25T15:31:58;11.28;50.40
584;HTU21D;27024;54.068;12.116;2023-04-25T15:34:25;11.68;51.17
584;HTU21D;27024;54.068;12.116;2023-04-25T15:36:52;12.11;50.14
584;HTU21D;27024;54.068;12.116;2023-04-25T15:39:19;12.51;47.05
584;HTU21D;27024;54.068;12.116;2023-04-25T15:41:46;13.18;43.17
584;HTU21D;27024;54.068;12.116;2023-04-25T15:44:13;13.01;42.87
584;HTU21D;27024;54.068;12.116;2023-04-25T15:46:40;12.16;43.36
584;HTU21D;27024;54.068;12.116;2023-04-25T15:49:07;12.02;45.48
584;HTU21D;27024;54.068;12.116;2023-04-25T15:51:34;12.40;44.06
584;HTU21D;27024;54.068;12.116;2023-04-25T15:54:01;12.10;46.12
584;HTU21D;27024;54.068;12.116;2023-04-25T15:56:28;11.37;48.12
584;HTU21D;27024;54.068;12.116;2023-04-25T15:58:55;10.95;52.37
584;HTU21D;27024;54.068;12.116;2023-04-25T16:01:22;10.56;52.69